Time;durP1;ratioP1;P1;durP2;ratioP2;P2;SDS_P1;SDS_P2;PMS_P1;PMS_P2;Temp;Humidity;BMP_temperature;BMP_pressure;BME280_temperature;BME280_humidity;BME280_pressure;Samples;Min_cycle;Max_cycle;Signal;HPM_P1;HPM_P2
2022/03/30 00:01:10;;;;;;;5.47;2.00;;;;;;;3.06;84.85;100726.16;4972031;28;20213;-43
2022/03/30 00:03:36;;;;;;;6.53;1.77;;;;;;;3.12;85.22;100716.38;4971917;28;20185;-42
2022/03/30 00:06:04;;;;;;;5.07;2.30;;;;;;;3.22;85.43;100724.22;4972178;28;20194;-42
2022/03/30 00:08:30;;;;;;;8.88;1.85;;;;;;;3.29;85.06;100717.97;4972029;28;20178;-44
2022/03/30 00:10:55;;;;;;;3.97;1.55;;;;;;;3.28;85.00;100728.59;4972195;28;20205;-44
2022/03/30 00:13:21;;;;;;;7.93;1.70;;;;;;;3.33;84.71;100720.59;4971798;28;20236;-43
2022/03/30 00:15:46;;;;;;;8.65;2.10;;;;;;;3.18;84.54;100719.84;4972206;28;20204;-43
2022/03/30 00:18:12;;;;;;;6.20;1.83;;;;;;;3.20;85.30;100730.44;4971153;28;20276;-43
2022/03/30 00:20:37;;;;;;;6.43;1.92;;;;;;;3.22;85.33;100718.06;4972244;28;20264;-43
2022/03/30 00:23:03;;;;;;;6.13;1.73;;;;;;;3.25;85.58;100721.53;4972043;28;20186;-43
2022/03/30 00:25:28;;;;;;;13.65;2.00;;;;;;;3.27;85.49;100718.88;4971557;28;20200;-44
2022/03/30 00:27:54;;;;;;;5.82;1.70;;;;;;;3.27;85.58;100717.09;4972240;28;20206;-44
2022/03/30 00:30:21;;;;;;;5.85;1.55;;;;;;;3.33;85.62;100715.31;4972042;28;20178;-45
2022/03/30 00:32:46;;;;;;;8.13;1.67;;;;;;;3.22;85.64;100720.72;4971543;28;20277;-43
2022/03/30 00:35:12;;;;;;;7.55;1.70;;;;;;;3.28;85.76;100726.81;4972136;28;20248;-42
2022/03/30 00:37:38;;;;;;;9.80;2.05;;;;;;;3.40;85.85;100715.22;4971965;28;20201;-47
2022/03/30 00:40:06;;;;;;;7.05;2.20;;;;;;;3.37;85.17;100709.97;4971627;28;20201;-44
2022/03/30 00:42:32;;;;;;;8.15;2.38;;;;;;;3.32;85.06;100718.84;4971425;28;20185;-45
2022/03/30 00:44:57;;;;;;;10.65;2.33;;;;;;;3.24;85.31;100713.63;4971702;28;20569;-45
2022/03/30 00:47:26;;;;;;;3.05;1.63;;;;;;;3.36;85.58;100716.13;4971897;28;20268;-49
2022/03/30 00:49:52;;;;;;;6.07;1.58;;;;;;;3.27;85.82;100714.44;4971381;28;20182;-48
2022/03/30 00:52:20;;;;;;;6.38;1.77;;;;;;;3.33;86.38;100702.06;4971586;28;20174;-43
2022/03/30 00:54:47;;;;;;;5.05;1.73;;;;;;;3.34;86.16;100714.41;4971008;28;20190;-47
2022/03/30 00:57:14;;;;;;;6.15;1.90;;;;;;;3.43;85.98;100706.34;4971580;28;20699;-46
2022/03/30 00:59:41;;;;;;;4.60;1.73;;;;;;;3.11;86.31;100706.69;4971354;28;20190;-47
2022/03/30 01:02:07;;;;;;;6.40;2.40;;;;;;;3.18;87.01;100705.75;4971333;28;20182;-44
2022/03/30 01:04:33;;;;;;;9.32;2.25;;;;;;;3.13;87.05;100703.16;4970972;28;20272;-45
2022/03/30 01:06:58;;;;;;;7.03;2.00;;;;;;;3.25;86.99;100695.06;4969922;28;20716;-44
2022/03/30 01:09:25;;;;;;;6.65;2.08;;;;;;;3.30;86.77;100697.66;4971333;28;20177;-47
2022/03/30 01:11:53;;;;;;;6.07;1.90;;;;;;;3.30;86.57;100701.22;4971498;28;20216;-47
2022/03/30 01:14:19;;;;;;;6.25;1.60;;;;;;;3.35;86.83;100687.91;4970430;28;20732;-46
2022/03/30 01:16:44;;;;;;;6.68;1.67;;;;;;;3.44;86.60;100692.22;4971405;28;20169;-46
2022/03/30 01:19:10;;;;;;;5.68;1.88;;;;;;;3.40;86.15;100688.72;4971165;28;20664;-46
2022/03/30 01:21:37;;;;;;;6.43;1.58;;;;;;;3.27;86.50;100689.75;4970919;28;20176;-47
2022/03/30 01:24:04;;;;;;;6.97;2.03;;;;;;;3.32;86.58;100687.06;4970860;28;20683;-48
2022/03/30 01:26:30;;;;;;;4.22;1.33;;;;;;;3.34;86.71;100680.84;4970820;28;20281;-45
2022/03/30 01:28:56;;;;;;;5.80;1.55;;;;;;;3.39;86.63;100679.03;4970913;28;20273;-45
2022/03/30 01:34:06;;;;;;;5.03;1.70;;;;;;;3.34;86.78;100669.38;4970394;28;20265;-44
2022/03/30 01:36:31;;;;;;;14.80;2.40;;;;;;;3.34;86.81;100672.03;4971004;28;20276;-47
2022/03/30 01:38:57;;;;;;;8.73;1.98;;;;;;;3.31;87.26;100667.66;4970840;28;20285;-48
2022/03/30 01:41:22;;;;;;;4.55;1.33;;;;;;;3.33;87.31;100659.69;4971152;28;20190;-45
2022/03/30 01:43:47;;;;;;;8.68;2.05;;;;;;;3.26;87.21;100662.41;4970758;28;20186;-46
2022/03/30 01:46:13;;;;;;;7.10;1.70;;;;;;;3.32;87.46;100657.94;4969438;28;20942;-46
2022/03/30 01:48:38;;;;;;;8.77;2.10;;;;;;;3.25;87.54;100657.13;4970824;28;20197;-45
2022/03/30 01:51:05;;;;;;;4.18;2.00;;;;;;;3.32;87.76;100660.56;4966580;28;20202;-45
2022/03/30 01:53:31;;;;;;;11.95;2.00;;;;;;;3.29;87.96;100661.50;4970414;28;20261;-48
2022/03/30 01:55:56;;;;;;;5.85;1.63;;;;;;;3.28;87.89;100657.97;4970331;28;20198;-46
2022/03/30 01:58:21;;;;;;;6.25;1.95;;;;;;;3.31;88.44;100657.06;4970728;28;20216;-46
2022/03/30 02:00:47;;;;;;;5.50;1.25;;;;;;;3.17;88.44;100653.66;4986130;28;20209;-45
2022/03/30 02:03:12;;;;;;;5.03;1.70;;;;;;;2.93;88.69;100649.50;4989059;28;20190;-45
2022/03/30 02:05:39;;;;;;;5.30;1.67;;;;;;;2.82;88.36;100644.31;4992217;28;20201;-48
2022/03/30 02:08:04;;;;;;;5.88;1.60;;;;;;;2.98;88.84;100651.22;4970799;28;20186;-47
2022/03/30 02:10:31;;;;;;;6.65;1.58;;;;;;;3.07;88.80;100650.25;4970489;28;20217;-45
2022/03/30 02:12:58;;;;;;;7.60;1.80;;;;;;;3.15;88.35;100647.50;4972398;28;20185;-46
2022/03/30 02:15:24;;;;;;;7.88;2.40;;;;;;;3.15;88.22;100640.47;4972450;28;20194;-47
2022/03/30 02:17:49;;;;;;;8.75;2.05;;;;;;;3.24;87.87;100642.16;4974616;28;20486;-44
2022/03/30 02:20:15;;;;;;;7.40;2.13;;;;;;;3.22;87.95;100630.69;4974406;28;20603;-48
2022/03/30 02:22:41;;;;;;;9.50;2.10;;;;;;;3.18;88.20;100629.84;4965143;28;20785;-48
2022/03/30 02:25:08;;;;;;;6.00;1.80;;;;;;;3.16;88.16;100639.56;4974075;28;20260;-44
2022/03/30 02:27:33;;;;;;;5.40;1.48;;;;;;;3.10;87.56;100631.69;4972745;28;20197;-45
2022/03/30 02:29:59;;;;;;;9.18;1.95;;;;;;;3.16;87.91;100628.09;4973963;28;20166;-48
2022/03/30 02:32:24;;;;;;;9.18;1.80;;;;;;;3.07;87.93;100639.66;4974357;28;20174;-47
2022/03/30 02:34:51;;;;;;;10.23;2.17;;;;;;;3.05;88.08;100625.56;4972290;28;20685;-49
2022/03/30 02:37:17;;;;;;;5.30;1.83;;;;;;;3.04;88.56;100631.75;4973459;28;20189;-47
2022/03/30 02:39:42;;;;;;;9.93;1.58;;;;;;;3.14;88.42;100627.25;4972272;28;20202;-46
2022/03/30 02:42:08;;;;;;;7.82;2.03;;;;;;;3.08;87.98;100631.72;4973674;28;20261;-45
2022/03/30 02:44:35;;;;;;;4.00;1.60;;;;;;;2.95;88.34;100623.91;4973445;28;20216;-43
2022/03/30 02:47:01;;;;;;;7.68;1.88;;;;;;;3.04;88.65;100630.00;4973816;28;20240;-44
2022/03/30 02:49:27;;;;;;;5.43;1.55;;;;;;;3.00;88.46;100630.91;4973927;28;20174;-44
2022/03/30 02:51:53;;;;;;;6.10;2.10;;;;;;;2.98;88.51;100622.13;4973265;28;20209;-45
2022/03/30 02:54:19;;;;;;;4.20;1.60;;;;;;;2.97;88.75;100627.41;4973460;28;20641;-45
2022/03/30 02:56:45;;;;;;;8.93;2.08;;;;;;;2.92;88.82;100614.25;4971470;28;20190;-46
2022/03/30 02:59:11;;;;;;;9.18;1.80;;;;;;;2.92;88.74;100616.88;4973481;28;20162;-49
2022/03/30 03:01:37;;;;;;;5.78;1.70;;;;;;;2.89;88.74;100623.09;4972559;28;20174;-45
2022/03/30 03:04:02;;;;;;;6.70;1.55;;;;;;;2.90;88.92;100610.72;4972838;28;20182;-50
2022/03/30 03:06:28;;;;;;;9.77;2.35;;;;;;;2.74;89.00;100615.31;4973266;28;20665;-46
2022/03/30 03:08:53;;;;;;;5.82;1.50;;;;;;;2.80;89.01;100609.97;4973493;28;20182;-46
2022/03/30 03:11:19;;;;;;;8.02;1.98;;;;;;;2.81;89.64;100617.00;4973310;28;20225;-44
2022/03/30 03:13:44;;;;;;;6.13;1.70;;;;;;;2.92;89.60;100614.25;4973265;28;20228;-48
2022/03/30 03:16:13;;;;;;;8.10;1.75;;;;;;;2.82;89.22;100615.22;4973157;28;20221;-45
2022/03/30 03:18:38;;;;;;;5.00;1.58;;;;;;;2.84;89.40;100606.41;4973318;28;20229;-46
2022/03/30 03:21:04;;;;;;;6.80;1.70;;;;;;;2.88;89.67;100608.09;4971170;28;20198;-47
2022/03/30 03:23:29;;;;;;;8.02;1.70;;;;;;;2.92;89.41;100611.59;4972322;28;20182;-45
2022/03/30 03:25:55;;;;;;;6.45;1.80;;;;;;;2.98;89.40;100602.72;4972640;28;20229;-46
2022/03/30 03:28:20;;;;;;;6.80;1.80;;;;;;;2.91;89.25;100601.00;4972940;28;20170;-45
2022/03/30 03:30:46;;;;;;;4.57;1.38;;;;;;;2.96;88.94;100596.56;4973105;28;20626;-46
2022/03/30 03:33:11;;;;;;;8.43;1.75;;;;;;;2.83;89.04;100591.41;4972563;28;20170;-46
2022/03/30 03:35:37;;;;;;;5.82;1.77;;;;;;;2.75;89.57;100592.38;4972784;28;20206;-46
2022/03/30 03:38:04;;;;;;;3.92;1.75;;;;;;;2.75;89.96;100593.22;4972927;28;20174;-46
2022/03/30 03:40:33;;;;;;;6.38;1.83;;;;;;;2.86;89.79;100599.31;4972383;28;20202;-47
2022/03/30 03:43:02;;;;;;;6.57;1.75;;;;;;;2.89;90.03;100604.56;4971177;28;20193;-45
2022/03/30 03:45:28;;;;;;;8.30;1.75;;;;;;;2.88;89.93;100605.44;4972843;28;20182;-47
2022/03/30 03:47:54;;;;;;;4.40;1.70;;;;;;;2.83;90.04;100601.97;4972446;28;20617;-47
2022/03/30 03:50:19;;;;;;;4.55;1.60;;;;;;;2.86;90.37;100601.97;4972801;28;20599;-46
2022/03/30 03:52:45;;;;;;;6.13;2.10;;;;;;;2.82;90.13;100608.19;4990968;28;20265;-45
2022/03/30 03:55:11;;;;;;;8.98;2.25;;;;;;;2.84;90.32;100598.47;4991713;28;20255;-44
2022/03/30 03:57:38;;;;;;;6.85;2.17;;;;;;;2.93;90.21;100601.88;4992011;28;20188;-45
2022/03/30 04:00:05;;;;;;;6.50;1.70;;;;;;;2.87;90.07;100603.69;4991129;28;20201;-49
2022/03/30 04:02:38;;;;;;;4.47;1.48;;;;;;;3.02;90.19;100607.09;4991743;28;20309;-46
2022/03/30 04:05:03;;;;;;;7.60;1.63;;;;;;;3.00;89.90;100606.22;4984719;28;20353;-47
2022/03/30 04:07:29;;;;;;;4.15;1.48;;;;;;;3.01;89.40;100594.75;4990471;28;20256;-47
2022/03/30 04:09:54;;;;;;;4.78;1.58;;;;;;;2.94;89.39;100596.56;4991808;28;20165;-48
2022/03/30 04:12:20;;;;;;;6.32;1.73;;;;;;;2.88;89.59;100597.50;4991630;28;20317;-46
2022/03/30 04:14:45;;;;;;;6.07;2.00;;;;;;;2.82;90.03;100602.88;4989917;28;20207;-45
2022/03/30 04:17:11;;;;;;;5.40;1.50;;;;;;;2.92;89.87;100605.44;4991479;28;20188;-47
2022/03/30 04:19:37;;;;;;;7.72;1.55;;;;;;;2.80;89.63;100602.03;4990067;28;20197;-45
2022/03/30 04:22:03;;;;;;;8.50;1.65;;;;;;;2.85;90.19;100610.78;4989947;28;20181;-45
2022/03/30 04:24:29;;;;;;;4.90;1.70;;;;;;;2.89;90.40;100611.63;4990644;28;20197;-47
2022/03/30 04:26:54;;;;;;;8.35;1.95;;;;;;;2.79;90.62;100610.84;4989824;28;20173;-45
2022/03/30 04:29:20;;;;;;;5.28;1.70;;;;;;;2.86;90.82;100604.63;4991063;28;20177;-45
2022/03/30 04:31:45;;;;;;;5.45;1.50;;;;;;;2.75;90.89;100609.09;4989804;28;20173;-48
2022/03/30 04:34:10;;;;;;;4.68;1.70;;;;;;;2.75;90.84;100605.59;4988690;28;20653;-47
2022/03/30 04:36:36;;;;;;;5.43;1.77;;;;;;;2.79;91.36;100610.84;4990496;28;20200;-45
2022/03/30 04:39:02;;;;;;;4.18;1.52;;;;;;;2.85;91.24;100605.50;4990772;28;20176;-47
2022/03/30 04:41:27;;;;;;;5.90;1.70;;;;;;;2.83;91.28;100603.75;4989650;28;20232;-48
2022/03/30 04:43:53;;;;;;;7.43;1.83;;;;;;;2.76;91.34;100602.06;4990184;28;20181;-47
2022/03/30 04:46:19;;;;;;;6.90;1.75;;;;;;;2.82;91.11;100605.53;4990752;28;20189;-46
2022/03/30 04:48:44;;;;;;;5.93;1.95;;;;;;;2.79;90.66;100608.19;4990308;28;20181;-46
2022/03/30 04:51:10;;;;;;;5.63;1.90;;;;;;;2.77;90.94;100599.38;4972804;28;20554;-47
2022/03/30 04:53:35;;;;;;;5.35;1.70;;;;;;;2.88;90.91;100600.16;4990091;28;20209;-46
2022/03/30 04:56:01;;;;;;;6.50;2.08;;;;;;;2.79;90.74;100604.69;4972623;28;20189;-47
2022/03/30 04:58:26;;;;;;;8.30;1.92;;;;;;;2.82;90.84;100609.91;4990128;28;20173;-49
2022/03/30 05:00:52;;;;;;;3.60;1.50;;;;;;;2.87;90.79;100609.00;4989716;28;20701;-46
2022/03/30 05:03:17;;;;;;;4.90;1.75;;;;;;;2.82;90.67;100613.47;4989898;28;20192;-45
2022/03/30 05:05:43;;;;;;;2.83;1.70;;;;;;;2.82;90.27;100608.19;4981384;28;20213;-46
2022/03/30 05:08:09;;;;;;;3.60;1.90;;;;;;;2.89;90.61;100615.16;4970682;28;20170;-44
2022/03/30 05:10:35;;;;;;;9.57;1.95;;;;;;;2.83;90.78;100604.63;4970848;28;20229;-47
2022/03/30 05:13:00;;;;;;;8.68;2.10;;;;;;;2.81;90.27;100611.69;4969150;28;20202;-48
2022/03/30 05:15:28;;;;;;;8.13;2.20;;;;;;;2.81;90.58;100608.19;4970574;28;20246;-48
2022/03/30 05:17:53;;;;;;;5.43;1.83;;;;;;;2.81;90.90;100603.75;4970846;28;20685;-44
2022/03/30 05:20:19;;;;;;;5.78;1.67;;;;;;;2.74;90.85;100611.78;4969065;28;20204;-45
2022/03/30 05:22:44;;;;;;;7.25;1.90;;;;;;;2.64;91.25;100610.97;4971024;28;20243;-46
2022/03/30 05:25:12;;;;;;;4.03;1.65;;;;;;;2.65;91.75;100602.19;4970147;28;20302;-45
2022/03/30 05:27:38;;;;;;;6.20;1.67;;;;;;;2.82;91.46;100601.97;4970648;28;20664;-47
2022/03/30 05:30:05;;;;;;;7.05;1.85;;;;;;;2.82;91.56;100597.59;4970703;28;20206;-46
2022/03/30 05:32:30;;;;;;;4.88;1.90;;;;;;;2.68;91.16;100605.66;4970324;28;20185;-47
2022/03/30 05:34:56;;;;;;;3.58;1.50;;;;;;;2.79;91.57;100599.38;4970554;28;20198;-43
2022/03/30 05:37:24;;;;;;;8.70;1.60;;;;;;;2.71;91.38;100599.44;4970863;28;20197;-46
2022/03/30 05:39:50;;;;;;;7.03;2.15;;;;;;;2.75;91.82;100601.16;4970518;28;20206;-48
2022/03/30 05:42:16;;;;;;;5.10;1.70;;;;;;;2.87;91.92;100598.41;4970254;28;20178;-48
2022/03/30 05:44:42;;;;;;;5.78;2.10;;;;;;;2.91;91.43;100606.31;4969570;28;20186;-45
2022/03/30 05:47:08;;;;;;;4.90;1.75;;;;;;;2.95;91.77;100610.69;4972286;28;20186;-45
2022/03/30 05:49:37;;;;;;;7.30;2.03;;;;;;;2.98;91.42;100608.88;4974191;28;20241;-48
2022/03/30 05:52:04;;;;;;;4.47;1.70;;;;;;;3.05;91.42;100615.00;4978167;28;20177;-45
2022/03/30 05:54:31;;;;;;;8.05;2.40;;;;;;;3.03;90.69;100609.69;4974253;28;20677;-47
2022/03/30 05:57:02;;;;;;;5.60;2.33;;;;;;;3.04;90.53;100610.56;4974679;28;20170;-48
2022/03/30 05:59:34;;;;;;;11.07;2.55;;;;;;;3.01;90.57;100611.50;4974999;28;20177;-46
2022/03/30 06:02:01;;;;;;;8.05;2.42;;;;;;;3.01;90.39;100610.63;4974297;28;20213;-45
2022/03/30 06:04:28;;;;;;;6.10;2.47;;;;;;;3.01;90.35;100607.97;4974054;28;20216;-45
2022/03/30 06:06:53;;;;;;;4.88;1.77;;;;;;;3.19;90.15;100609.53;4974743;28;20257;-44
2022/03/30 06:09:19;;;;;;;4.57;1.90;;;;;;;3.27;89.55;100605.91;4974306;28;20277;-48
2022/03/30 06:11:46;;;;;;;5.15;2.00;;;;;;;3.41;88.76;100612.78;4974264;28;20170;-47
2022/03/30 06:14:11;;;;;;;5.75;1.90;;;;;;;3.95;88.62;100609.44;4973528;28;20198;-43
2022/03/30 06:16:37;;;;;;;5.00;1.95;;;;;;;4.39;87.26;100616.69;4993128;28;20197;-48
2022/03/30 06:19:03;;;;;;;5.32;1.70;;;;;;;4.53;85.57;100616.50;4993903;28;20552;-48
2022/03/30 06:21:30;;;;;;;10.63;2.00;;;;;;;4.67;84.72;100611.81;4992010;28;20209;-46
2022/03/30 06:23:56;;;;;;;4.72;1.83;;;;;;;4.89;83.32;100612.28;4993530;28;20177;-48
2022/03/30 06:26:21;;;;;;;6.18;1.80;;;;;;;5.24;82.26;100613.41;4993506;28;20280;-46
2022/03/30 06:28:47;;;;;;;4.38;2.03;;;;;;;5.54;80.58;100605.72;4993769;28;20260;-49
2022/03/30 06:31:17;;;;;;;6.97;1.80;;;;;;;5.77;78.74;100602.53;4992143;28;20173;-48
2022/03/30 06:33:44;;;;;;;7.85;1.95;;;;;;;5.93;77.11;100608.41;4993280;28;20184;-46
2022/03/30 06:36:10;;;;;;;4.63;2.20;;;;;;;6.08;75.43;100604.53;4992292;28;20270;-46
2022/03/30 06:38:36;;;;;;;9.68;3.85;;;;;;;6.14;76.12;100601.75;4992857;28;20185;-47
2022/03/30 06:41:02;;;;;;;10.60;5.10;;;;;;;6.22;75.88;100605.09;4985455;28;20540;-46
2022/03/30 06:43:28;;;;;;;8.55;5.03;;;;;;;6.39;75.52;100607.38;4993693;28;20643;-48
2022/03/30 06:45:54;;;;;;;9.95;4.53;;;;;;;6.36;74.44;100603.00;4993336;28;20212;-48
2022/03/30 06:48:19;;;;;;;8.75;3.83;;;;;;;6.30;75.25;100602.28;4993655;28;20173;-48
2022/03/30 06:50:45;;;;;;;6.10;2.90;;;;;;;5.60;77.12;100613.56;4992617;28;20653;-45
2022/03/30 06:53:10;;;;;;;6.22;2.90;;;;;;;5.51;77.90;100617.28;4992716;28;20169;-48
2022/03/30 06:55:38;;;;;;;14.57;3.25;;;;;;;5.17;77.72;100606.47;4993340;28;20189;-48
2022/03/30 06:58:04;;;;;;;7.82;3.30;;;;;;;4.80;80.11;100609.81;4992650;28;20173;-46
2022/03/30 07:00:30;;;;;;;5.57;2.70;;;;;;;4.65;81.18;100613.59;4991291;28;20200;-46
2022/03/30 07:02:55;;;;;;;5.55;2.58;;;;;;;4.56;81.84;100615.56;4992846;28;20181;-44
2022/03/30 07:05:21;;;;;;;5.53;2.80;;;;;;;4.69;82.08;100622.41;4986644;28;20185;-44
2022/03/30 07:10:33;;;;;;;6.22;2.83;;;;;;;4.24;84.68;100603.69;4991626;28;20298;-48
2022/03/30 07:13:00;;;;;;;7.03;2.30;;;;;;;4.74;84.66;100616.13;4991974;28;20175;-47
2022/03/30 07:15:26;;;;;;;6.30;2.03;;;;;;;5.60;83.30;100597.63;4991721;28;20271;-47
2022/03/30 07:17:54;;;;;;;7.40;2.53;;;;;;;5.86;80.87;100602.38;4991702;28;20166;-45
2022/03/30 07:20:21;;;;;;;4.47;2.13;;;;;;;5.53;80.83;100603.94;4992263;28;20308;-48
2022/03/30 07:22:47;;;;;;;6.28;2.25;;;;;;;6.15;80.73;100607.03;4989952;28;20187;-42
2022/03/30 07:25:15;;;;;;;6.07;2.75;;;;;;;6.44;78.53;100597.47;4991940;28;20613;-43
2022/03/30 07:27:42;;;;;;;5.97;3.20;;;;;;;5.67;79.56;100596.56;4991539;28;20216;-42
2022/03/30 07:30:09;;;;;;;9.95;3.40;;;;;;;5.89;80.37;100598.75;4991495;28;20170;-44
2022/03/30 07:32:39;;;;;;;6.45;2.58;;;;;;;6.39;78.95;100596.72;4992537;28;20627;-45
2022/03/30 07:35:07;;;;;;;8.45;2.88;;;;;;;6.28;78.16;100593.44;4992931;28;20193;-41
2022/03/30 07:37:32;;;;;;;7.50;2.95;;;;;;;6.48;78.04;100588.50;4992142;28;20177;-41
2022/03/30 07:39:59;;;;;;;7.60;3.03;;;;;;;6.17;77.23;100588.38;4992656;28;20707;-45
2022/03/30 07:42:25;;;;;;;6.63;2.60;;;;;;;5.53;80.88;100602.19;4993215;28;20212;-41
2022/03/30 07:44:51;;;;;;;8.25;3.17;;;;;;;5.31;80.85;100596.44;4992638;28;20579;-41
2022/03/30 07:47:17;;;;;;;7.93;3.15;;;;;;;5.91;80.90;100589.84;4993019;28;20169;-44
2022/03/30 07:49:43;;;;;;;4.72;2.78;;;;;;;5.39;79.74;100590.97;4992840;28;20170;-41
2022/03/30 07:52:08;;;;;;;6.75;3.45;;;;;;;4.80;81.35;100600.97;4992694;28;20174;-42
2022/03/30 07:54:34;;;;;;;4.82;2.65;;;;;;;4.78;82.12;100592.16;4992404;28;20169;-43
2022/03/30 07:56:59;;;;;;;10.60;3.55;;;;;;;4.78;82.74;100600.13;4992781;28;20165;-41
2022/03/30 07:59:25;;;;;;;8.23;4.00;;;;;;;5.04;82.15;100589.03;4992655;28;20621;-41
2022/03/30 08:01:51;;;;;;;6.45;2.97;;;;;;;5.32;80.13;100589.34;4992901;28;20220;-44
2022/03/30 08:04:17;;;;;;;6.80;3.08;;;;;;;5.67;79.15;100580.63;4990816;28;20209;-42
2022/03/30 08:06:42;;;;;;;6.75;3.00;;;;;;;5.17;79.62;100590.53;4975516;28;20312;-42
2022/03/30 08:09:08;;;;;;;12.88;3.83;;;;;;;5.68;78.56;100593.00;4971712;28;20173;-43
2022/03/30 08:11:34;;;;;;;14.82;4.50;;;;;;;4.78;78.17;100594.81;4973260;28;20252;-43
2022/03/30 08:14:00;;;;;;;8.80;3.97;;;;;;;5.15;78.91;100595.00;4972862;28;20170;-39
2022/03/30 08:16:25;;;;;;;9.30;3.72;;;;;;;5.26;78.28;100593.00;4972726;28;20231;-41
2022/03/30 08:18:50;;;;;;;6.13;3.42;;;;;;;5.46;77.78;100592.56;4973006;28;20178;-41
2022/03/30 08:24:00;;;;;;;7.57;3.85;;;;;;;5.76;75.32;100591.03;4972654;28;20185;-40
2022/03/30 08:26:26;;;;;;;9.85;3.53;;;;;;;5.68;75.52;100584.16;4972759;28;20201;-42
2022/03/30 08:28:51;;;;;;;6.57;3.85;;;;;;;5.32;76.36;100592.00;4972176;28;20162;-43
2022/03/30 08:31:17;;;;;;;9.18;4.10;;;;;;;5.57;75.70;100590.59;4972373;28;20245;-42
2022/03/30 08:33:42;;;;;;;9.45;3.80;;;;;;;5.67;74.38;100585.94;4971988;28;20181;-40
2022/03/30 08:36:08;;;;;;;7.63;3.70;;;;;;;5.99;74.12;100579.03;4971104;28;20212;-41
2022/03/30 08:38:33;;;;;;;6.78;3.20;;;;;;;6.00;72.70;100585.25;4972349;28;20523;-40
2022/03/30 08:40:59;;;;;;;7.43;2.60;;;;;;;5.89;72.44;100580.16;4972099;28;20198;-43
2022/03/30 08:43:26;;;;;;;6.63;2.30;;;;;;;6.10;72.70;100579.69;4971198;28;20182;-40
2022/03/30 08:45:59;;;;;;;7.03;2.40;;;;;;;6.04;71.74;100576.28;4971632;28;20202;-41
2022/03/30 08:48:24;;;;;;;7.18;2.60;;;;;;;6.39;72.53;100581.63;4970653;28;20649;-41
2022/03/30 08:50:51;;;;;;;7.80;3.30;;;;;;;6.37;72.47;100577.25;4971995;28;20175;-42
2022/03/30 08:53:16;;;;;;;7.18;2.20;;;;;;;6.74;70.45;100577.19;4970465;28;20712;-42
2022/03/30 08:55:42;;;;;;;5.57;1.98;;;;;;;6.83;67.22;100576.06;4971543;28;20194;-43
2022/03/30 08:58:08;;;;;;;7.13;2.00;;;;;;;6.90;68.15;100577.63;4970551;28;20660;-43
2022/03/30 09:00:34;;;;;;;2.58;1.60;;;;;;;5.77;70.98;100579.53;4971760;28;20699;-40
2022/03/30 09:03:01;;;;;;;4.38;2.00;;;;;;;5.18;73.43;100581.63;4972011;28;20217;-42
2022/03/30 09:05:28;;;;;;;5.35;1.85;;;;;;;5.03;74.17;100588.16;4970728;28;20201;-43
2022/03/30 09:08:07;;;;;;;4.07;1.67;;;;;;;5.00;74.74;100589.97;4971967;28;20268;-42
2022/03/30 09:10:35;;;;;;;4.30;2.00;;;;;;;4.80;76.00;100595.66;4971442;28;20165;-42
2022/03/30 09:13:02;;;;;;;4.20;2.13;;;;;;;4.83;76.87;100599.16;4971891;28;20178;-41
2022/03/30 09:15:28;;;;;;;3.83;2.00;;;;;;;4.85;77.22;100597.31;4971391;28;20721;-41
2022/03/30 09:18:02;;;;;;;4.85;2.20;;;;;;;4.61;77.76;100603.06;4971288;28;20245;-44
2022/03/30 09:20:28;;;;;;;5.28;2.20;;;;;;;4.62;78.71;100595.09;4970517;28;20182;-41
2022/03/30 09:22:56;;;;;;;4.35;1.92;;;;;;;4.64;78.13;100595.06;4972196;28;20200;-43
2022/03/30 09:25:27;;;;;;;5.40;2.00;;;;;;;4.77;77.11;100587.75;4970503;28;20388;-43
2022/03/30 09:27:57;;;;;;;2.33;1.67;;;;;;;5.12;74.10;100587.97;4971751;28;20205;-43
2022/03/30 09:30:28;;;;;;;5.75;1.77;;;;;;;5.22;75.21;100582.47;4971278;28;20237;-42
2022/03/30 09:32:57;;;;;;;3.70;1.50;;;;;;;4.94;75.11;100585.66;4970762;28;20580;-44
2022/03/30 09:35:41;;;;;;;4.15;1.40;;;;;;;4.72;72.80;100588.72;4971028;28;20196;-43
2022/03/30 09:38:14;;;;;;;4.18;1.35;;;;;;;4.68;72.63;100587.03;4971853;28;20237;-42
2022/03/30 09:40:39;;;;;;;3.63;1.50;;;;;;;5.14;71.46;100580.84;4971588;28;20212;-41
2022/03/30 09:43:24;;;;;;;3.88;1.70;;;;;;;5.22;70.56;100579.81;4971622;28;20724;-43
2022/03/30 09:46:06;;;;;;;3.88;1.70;;;;;;;5.83;67.63;100565.19;4971748;28;20210;-44
2022/03/30 09:48:39;;;;;;;2.58;1.45;;;;;;;6.38;64.72;100560.38;4971506;28;20162;-44
2022/03/30 09:51:06;;;;;;;3.22;1.70;;;;;;;6.35;63.20;100569.31;4972155;28;20150;-43
2022/03/30 09:53:33;;;;;;;3.83;1.75;;;;;;;6.66;62.60;100557.00;4969952;28;20174;-43
2022/03/30 09:56:07;;;;;;;4.60;1.63;;;;;;;6.51;63.08;100563.59;4971821;28;20911;-44
2022/03/30 09:58:38;;;;;;;5.30;1.77;;;;;;;7.38;62.05;100554.97;4969525;28;20186;-42
2022/03/30 10:01:17;;;;;;;4.13;1.73;;;;;;;6.96;60.74;100553.50;4971432;28;20202;-44
2022/03/30 10:03:54;;;;;;;4.50;2.00;;;;;;;6.35;61.49;100556.00;4971137;28;20185;-41
2022/03/30 10:06:29;;;;;;;3.35;1.50;;;;;;;6.30;60.27;100551.72;4984826;28;20252;-42
2022/03/30 10:08:56;;;;;;;3.22;1.55;;;;;;;5.78;61.34;100553.81;4991147;28;20169;-42
2022/03/30 10:11:23;;;;;;;6.40;1.52;;;;;;;6.64;60.66;100550.84;4990623;28;20189;-41
2022/03/30 10:13:56;;;;;;;4.50;1.40;;;;;;;6.91;57.38;100539.44;4990476;28;20173;-42
2022/03/30 10:16:23;;;;;;;7.95;2.15;;;;;;;7.08;59.48;100546.06;4990387;28;20259;-41
2022/03/30 10:18:53;;;;;;;2.95;1.33;;;;;;;7.14;58.20;100532.59;4990475;28;20213;-41
2022/03/30 10:21:30;;;;;;;3.03;1.63;;;;;;;6.87;55.85;100526.28;4989006;28;20209;-42
2022/03/30 10:24:01;;;;;;;2.55;1.30;;;;;;;6.74;56.75;100531.06;4990188;28;20181;-41
2022/03/30 10:26:52;;;;;;;5.30;1.77;;;;;;;6.71;58.17;100540.00;4990242;28;20577;-41
2022/03/30 10:29:21;;;;;;;6.05;1.92;;;;;;;6.85;58.48;100531.63;4990055;28;20418;-42
2022/03/30 10:32:17;;;;;;;9.15;1.90;;;;;;;6.68;58.87;100528.56;4991046;28;20180;-41
2022/03/30 10:35:11;;;;;;;3.90;1.50;;;;;;;6.39;60.84;100533.72;4993120;28;20297;-42
2022/03/30 10:37:39;;;;;;;7.72;2.08;;;;;;;6.04;62.02;100533.75;4991563;28;20660;-42
2022/03/30 10:40:19;;;;;;;3.67;1.90;;;;;;;5.93;63.79;100539.28;4992416;28;20274;-41
2022/03/30 10:42:49;;;;;;;4.85;1.85;;;;;;;6.11;63.41;100524.69;4994061;28;20207;-39
2022/03/30 10:45:31;;;;;;;4.03;2.28;;;;;;;5.80;65.34;100524.53;4993686;28;20692;-41
2022/03/30 10:48:06;;;;;;;5.00;2.10;;;;;;;5.72;66.67;100530.88;4993474;28;20667;-41
2022/03/30 10:50:33;;;;;;;3.92;2.28;;;;;;;5.38;67.10;100525.47;4992529;28;20555;-42
2022/03/30 10:52:59;;;;;;;5.55;1.70;;;;;;;5.31;66.83;100519.41;4992537;28;20169;-42
2022/03/30 10:55:24;;;;;;;3.15;1.95;;;;;;;5.47;66.44;100522.59;4993676;28;20192;-43
2022/03/30 10:57:58;;;;;;;4.47;2.22;;;;;;;5.21;65.58;100512.53;4992575;28;20331;-40
2022/03/30 11:00:38;;;;;;;3.38;1.90;;;;;;;5.34;65.46;100514.03;4993560;28;20861;-44
2022/03/30 11:03:11;;;;;;;6.38;1.90;;;;;;;5.18;66.02;100509.94;4993749;28;20248;-43
2022/03/30 11:05:37;;;;;;;3.85;1.80;;;;;;;5.31;65.69;100516.75;4991707;28;20193;-42
2022/03/30 11:08:26;;;;;;;6.35;1.80;;;;;;;5.54;65.79;100510.06;4993881;28;20655;-43
2022/03/30 11:10:52;;;;;;;5.47;1.83;;;;;;;5.70;65.23;100515.88;4993544;28;20166;-41
2022/03/30 11:13:24;;;;;;;1.80;1.60;;;;;;;5.19;65.60;100510.84;4993579;28;20177;-42
2022/03/30 11:15:59;;;;;;;4.20;1.95;;;;;;;5.26;66.00;100521.28;4993384;28;20255;-41
2022/03/30 11:18:26;;;;;;;3.30;1.45;;;;;;;5.28;65.98;100523.91;4993110;28;20672;-43
2022/03/30 11:21:12;;;;;;;4.68;1.70;;;;;;;5.28;66.17;100523.91;4993021;28;20259;-43
2022/03/30 11:23:39;;;;;;;3.40;1.25;;;;;;;5.26;66.24;100528.38;4991581;28;20213;-43
2022/03/30 11:26:05;;;;;;;2.45;1.67;;;;;;;5.36;66.29;100537.91;4993396;28;20193;-38
2022/03/30 11:28:40;;;;;;;6.13;1.60;;;;;;;5.29;65.08;100517.69;4992826;28;20177;-45
2022/03/30 11:31:19;;;;;;;3.17;1.60;;;;;;;4.98;64.73;100523.63;4993317;28;20562;-43
2022/03/30 11:33:45;;;;;;;5.53;1.55;;;;;;;5.37;63.97;100513.94;4991852;28;20189;-44
2022/03/30 11:36:10;;;;;;;4.63;1.38;;;;;;;5.46;63.90;100515.53;4992794;28;20197;-43
2022/03/30 11:38:40;;;;;;;3.05;1.42;;;;;;;5.70;63.90;100514.09;4991591;28;20180;-43
2022/03/30 11:41:09;;;;;;;4.57;1.67;;;;;;;5.46;64.82;100506.69;4992737;28;20251;-42
2022/03/30 11:45:12;;;;;;;2.95;1.40;;;;;;;5.51;64.76;100516.31;4992756;28;20170;-43